createdAt,value
2019-03-01T00:02:12.352Z,28.38
2019-03-01T00:05:20.522Z,26.87
2019-03-01T00:08:31.284Z,25.35
2019-03-01T00:11:23.224Z,24.80
2019-03-01T00:14:21.545Z,27.85
2019-03-01T00:17:33.297Z,26.35
2019-03-01T00:20:47.752Z,25.65
2019-03-01T00:26:59.469Z,24.07
2019-03-01T00:30:02.346Z,24.35
2019-03-01T00:32:54.969Z,24.82
2019-03-01T00:36:00.733Z,23.25
2019-03-01T00:39:07.164Z,24.70
2019-03-01T00:41:48.125Z,22.27
2019-03-01T00:44:31.196Z,24.98
2019-03-01T00:47:13.672Z,24.18
2019-03-01T00:49:55.996Z,24.75
2019-03-01T00:52:32.435Z,23.02
2019-03-01T00:55:08.674Z,24.02
2019-03-01T00:57:51.448Z,21.90
2019-03-01T01:00:47.083Z,24.63
2019-03-01T01:03:22.886Z,26.02
2019-03-01T01:06:05.853Z,25.45
2019-03-01T01:08:41.431Z,24.23
2019-03-01T01:11:17.517Z,24.18
2019-03-01T01:13:59.998Z,23.52
2019-03-01T01:16:41.709Z,24.47
2019-03-01T01:19:24.811Z,23.05
2019-03-01T01:22:07.377Z,24.67
2019-03-01T01:24:50.186Z,25.77
2019-03-01T01:27:33.252Z,24.67
2019-03-01T01:30:08.956Z,23.02
2019-03-01T01:32:44.627Z,24.43
2019-03-01T01:35:27.148Z,23.18
2019-03-01T01:38:10.509Z,23.67
2019-03-01T01:40:59.926Z,20.05
2019-03-01T01:43:41.832Z,22.80
2019-03-01T01:46:24.840Z,21.97
2019-03-01T01:49:14.085Z,21.77
2019-03-01T01:51:56.591Z,20.92
2019-03-01T01:54:39.706Z,21.52
2019-03-01T01:57:21.513Z,22.35
2019-03-01T01:59:57.125Z,22.00
2019-03-01T02:02:40.183Z,22.85
2019-03-01T02:05:16.363Z,21.57
2019-03-01T02:07:57.987Z,18.73
2019-03-01T02:10:40.370Z,18.98
2019-03-01T02:13:28.890Z,21.25
2019-03-01T02:16:11.205Z,20.37
2019-03-01T02:18:46.732Z,19.85
2019-03-01T02:21:29.756Z,20.43
2019-03-01T02:24:05.216Z,20.52
2019-03-01T02:26:47.800Z,20.25
2019-03-01T02:29:37.422Z,20.15
2019-03-01T02:32:26.741Z,18.48
2019-03-01T02:35:02.660Z,19.73
2019-03-01T02:37:45.568Z,20.80
2019-03-01T02:40:34.460Z,20.15
2019-03-01T02:43:10.001Z,19.77
2019-03-01T02:45:52.542Z,18.42
2019-03-01T02:48:34.910Z,13.78
2019-03-01T02:51:10.937Z,18.48
2019-03-01T02:53:46.889Z,18.20
2019-03-01T02:56:29.351Z,19.12
2019-03-01T02:59:05.685Z,19.45
2019-03-01T03:01:48.360Z,18.52
2019-03-01T03:04:24.117Z,18.23
2019-03-01T03:07:08.211Z,18.90
2019-03-01T03:09:57.847Z,18.65
2019-03-01T03:12:40.187Z,17.77
2019-03-01T03:15:29.661Z,17.02
2019-03-01T03:18:12.251Z,18.73
2019-03-01T03:20:48.431Z,18.23
2019-03-01T03:23:30.825Z,18.23
2019-03-01T03:26:07.180Z,17.52
2019-03-01T03:28:48.884Z,18.30
2019-03-01T03:31:24.926Z,16.48
2019-03-01T03:34:07.287Z,18.20
2019-03-01T03:36:50.079Z,17.80
2019-03-01T03:39:31.832Z,17.35
2019-03-01T03:42:14.455Z,18.57
2019-03-01T03:44:50.886Z,18.48
2019-03-01T03:47:32.981Z,17.98
2019-03-01T03:50:25.713Z,18.50
2019-03-01T03:53:08.051Z,16.77
2019-03-01T03:55:51.061Z,18.77
2019-03-01T03:58:40.264Z,16.30
2019-03-01T04:01:29.757Z,17.42
2019-03-01T04:04:19.126Z,17.45
2019-03-01T04:06:54.967Z,17.90
2019-03-01T04:09:37.956Z,18.05
2019-03-01T04:12:20.861Z,17.35
2019-03-01T04:15:09.670Z,18.62
2019-03-01T04:17:58.428Z,18.48
2019-03-01T04:20:48.221Z,17.02
2019-03-01T04:23:37.795Z,17.35
2019-03-01T04:26:27.570Z,19.67
2019-03-01T04:29:09.206Z,18.37
2019-03-01T04:31:51.672Z,19.57
2019-03-01T04:34:40.420Z,17.37
2019-03-01T04:37:29.418Z,18.42
2019-03-01T04:40:21.019Z,17.20
2019-03-01T04:43:09.697Z,16.85
2019-03-01T04:45:59.453Z,17.60
2019-03-01T04:48:48.905Z,16.45
2019-03-01T04:51:40.328Z,16.35
2019-03-01T04:54:22.260Z,16.17
2019-03-01T04:57:11.024Z,13.10
2019-03-01T04:59:54.513Z,17.20
2019-03-01T05:02:24.023Z,17.20
2019-03-01T05:05:13.660Z,17.60
2019-03-01T05:07:49.961Z,17.20
2019-03-01T05:10:32.854Z,17.90
2019-03-01T05:13:15.317Z,19.00
2019-03-01T05:15:51.046Z,19.23
2019-03-01T05:18:34.214Z,19.82
2019-03-01T05:21:17.290Z,19.55
2019-03-01T05:23:53.096Z,13.88
2019-03-01T05:26:35.004Z,19.02
2019-03-01T05:29:17.829Z,18.60
2019-03-01T05:31:54.081Z,18.92
2019-03-01T05:34:36.201Z,17.57
2019-03-01T05:37:19.450Z,17.80
2019-03-01T05:40:09.043Z,19.37
2019-03-01T05:42:45.598Z,22.60
2019-03-01T05:45:33.982Z,22.22
2019-03-01T05:48:16.479Z,20.23
2019-03-01T05:50:52.348Z,18.17
2019-03-01T05:53:35.302Z,18.27
2019-03-01T05:56:18.075Z,15.48
2019-03-01T05:58:54.213Z,16.42
2019-03-01T06:01:42.176Z,24.15
2019-03-01T06:04:45.176Z,24.80
2019-03-01T06:07:51.825Z,21.07
2019-03-01T06:10:43.712Z,18.57
2019-03-01T06:13:58.154Z,18.25
2019-03-01T06:19:57.064Z,16.42
2019-03-01T06:22:50.075Z,16.27
2019-03-01T06:25:34.192Z,14.80
2019-03-01T06:28:31.149Z,16.10
2019-03-01T06:31:50.100Z,18.62
2019-03-01T06:34:49.535Z,17.07
2019-03-01T06:37:51.690Z,16.57
2019-03-01T06:40:58.124Z,16.10
2019-03-01T06:44:09.397Z,15.63
2019-03-01T06:47:21.683Z,16.60
2019-03-01T06:50:22.406Z,14.10
2019-03-01T06:52:52.065Z,14.60
2019-03-01T06:55:42.053Z,15.35
2019-03-01T06:58:32.479Z,13.03
2019-03-01T07:01:10.213Z,13.00
2019-03-01T07:03:54.878Z,15.45
2019-03-01T07:06:37.665Z,15.78
2019-03-01T07:09:21.438Z,16.47
2019-03-01T07:11:57.059Z,15.23
2019-03-01T07:14:40.235Z,16.07
2019-03-01T07:17:15.944Z,15.43
2019-03-01T07:19:52.067Z,14.73
2019-03-01T07:22:41.386Z,16.10
2019-03-01T07:25:30.485Z,16.75
2019-03-01T07:28:12.899Z,17.32
2019-03-01T07:30:55.346Z,16.15
2019-03-01T07:33:37.965Z,18.98
2019-03-01T07:36:14.175Z,20.10
2019-03-01T07:38:55.920Z,22.00
2019-03-01T07:41:32.077Z,20.57
2019-03-01T07:44:15.073Z,21.95
2019-03-01T07:46:59.176Z,20.37
2019-03-01T07:49:35.722Z,19.32
2019-03-01T07:52:18.142Z,21.35
2019-03-01T07:54:54.715Z,19.65
2019-03-01T07:57:31.573Z,22.60
2019-03-01T08:00:14.909Z,19.65
2019-03-01T08:02:57.012Z,21.12
2019-03-01T08:05:46.764Z,24.75
2019-03-01T08:08:29.311Z,22.85
2019-03-01T08:11:05.890Z,18.15
2019-03-01T08:13:49.447Z,20.27
2019-03-01T08:16:26.741Z,19.87
2019-03-01T08:19:22.610Z,13.55
2019-03-01T08:22:01.230Z,11.68
2019-03-01T08:24:46.664Z,10.40
2019-03-01T08:27:27.844Z,10.48
2019-03-01T08:30:06.971Z,11.50
2019-03-01T08:32:47.954Z,10.18
2019-03-01T08:35:28.325Z,10.18
2019-03-01T08:38:11.236Z,11.28
2019-03-01T08:40:49.941Z,10.13
2019-03-01T08:43:31.284Z,7.05
2019-03-01T08:46:20.615Z,6.70
2019-03-01T08:49:06.702Z,6.70
2019-03-01T08:51:47.885Z,5.97
2019-03-01T08:54:31.071Z,5.75
2019-03-01T08:57:07.103Z,5.83
2019-03-01T08:59:56.638Z,6.37
2019-03-01T09:02:40.141Z,7.22
2019-03-01T09:05:19.327Z,5.12
2019-03-01T09:08:01.798Z,4.47
2019-03-01T09:10:38.465Z,4.50
2019-03-01T09:13:21.489Z,5.20
2019-03-01T09:16:03.588Z,5.08
2019-03-01T09:18:40.109Z,6.25
2019-03-01T09:21:23.017Z,3.80
2019-03-01T09:23:55.005Z,4.70
2019-03-01T09:26:30.404Z,4.62
2019-03-01T09:29:06.291Z,4.15
2019-03-01T09:31:50.775Z,3.67
2019-03-01T09:34:40.406Z,4.67
2019-03-01T09:37:32.505Z,3.62
2019-03-01T09:40:14.987Z,3.08
2019-03-01T09:42:52.315Z,5.87
2019-03-01T09:45:36.584Z,2.33
2019-03-01T09:48:26.282Z,2.83
2019-03-01T09:51:10.679Z,2.50
2019-03-01T09:53:46.107Z,3.12
2019-03-01T09:56:28.724Z,2.27
2019-03-01T09:59:10.830Z,2.90
2019-03-01T10:01:53.647Z,3.10
2019-03-01T10:04:29.495Z,2.65
2019-03-01T10:07:25.549Z,2.98
2019-03-01T10:10:14.964Z,3.22
2019-03-01T10:13:03.985Z,6.22
2019-03-01T10:15:39.531Z,4.95
2019-03-01T10:18:22.154Z,3.27
2019-03-01T10:21:10.829Z,14.23
2019-03-01T10:23:53.384Z,9.98
2019-03-01T10:26:36.984Z,8.10
2019-03-01T10:29:26.328Z,5.55
2019-03-01T10:32:02.513Z,23.07
2019-03-01T10:34:45.065Z,6.35
2019-03-01T10:37:28.322Z,9.48
2019-03-01T10:40:04.628Z,5.62
2019-03-01T10:42:53.368Z,8.83
2019-03-01T10:45:44.618Z,14.30
2019-03-01T10:48:27.486Z,5.00
2019-03-01T10:51:16.444Z,3.00
2019-03-01T10:54:05.841Z,3.50
2019-03-01T10:56:49.061Z,3.50
2019-03-01T10:59:25.135Z,4.37
2019-03-01T11:02:07.392Z,2.60
2019-03-01T11:04:43.772Z,2.83
2019-03-01T11:07:27.088Z,1.77
2019-03-01T11:10:02.944Z,4.22
2019-03-01T11:12:45.810Z,4.62
2019-03-01T11:15:35.040Z,12.00
2019-03-01T11:18:17.533Z,4.65
2019-03-01T11:21:00.127Z,5.37
2019-03-01T11:23:35.907Z,5.37
2019-03-01T11:26:18.570Z,5.15
2019-03-01T11:29:01.184Z,2.80
2019-03-01T11:31:37.108Z,6.87
2019-03-01T11:34:26.747Z,5.30
2019-03-01T11:37:09.485Z,6.12
2019-03-01T11:39:52.055Z,5.78
2019-03-01T11:42:41.410Z,3.12
2019-03-01T11:45:24.809Z,4.90
2019-03-01T11:48:07.251Z,7.35
2019-03-01T11:50:49.837Z,6.03
2019-03-01T11:53:25.357Z,12.28
2019-03-01T11:56:07.270Z,4.92
2019-03-01T11:58:43.726Z,13.03
2019-03-01T12:01:25.581Z,3.33
2019-03-01T12:04:01.927Z,7.90
2019-03-01T12:06:44.864Z,19.62
2019-03-01T12:09:21.161Z,3.87
2019-03-01T12:12:03.948Z,6.45
2019-03-01T12:14:40.057Z,21.90
2019-03-01T12:17:22.968Z,10.03
2019-03-01T12:20:05.978Z,6.80
2019-03-01T12:22:47.860Z,8.30
2019-03-01T12:25:30.797Z,7.90
2019-03-01T12:28:13.531Z,11.93
2019-03-01T12:30:55.901Z,5.10
2019-03-01T12:33:38.608Z,7.45
2019-03-01T12:36:20.698Z,3.60
2019-03-01T12:39:03.678Z,4.58
2019-03-01T12:41:53.045Z,3.05
2019-03-01T12:44:35.253Z,3.58
2019-03-01T12:47:17.969Z,3.85
2019-03-01T12:50:06.978Z,3.60
2019-03-01T12:52:49.701Z,3.90
2019-03-01T12:55:35.030Z,4.40
2019-03-01T12:58:19.619Z,3.90
2019-03-01T13:00:55.777Z,4.05
2019-03-01T13:03:40.635Z,3.25
2019-03-01T13:06:26.508Z,2.95
2019-03-01T13:09:04.526Z,2.83
2019-03-01T13:11:53.897Z,3.60
2019-03-01T13:14:36.711Z,3.67
2019-03-01T13:19:57.586Z,5.28
2019-03-01T13:22:40.635Z,3.92
2019-03-01T13:25:25.887Z,4.07
2019-03-01T13:28:08.585Z,11.18
2019-03-01T13:30:57.753Z,4.03
2019-03-01T13:33:34.784Z,4.25
2019-03-01T13:36:13.263Z,3.55
2019-03-01T13:38:42.668Z,3.30
2019-03-01T13:41:18.955Z,4.58
2019-03-01T13:43:55.559Z,5.22
2019-03-01T13:46:33.456Z,3.75
2019-03-01T13:49:15.537Z,4.95
2019-03-01T13:51:58.328Z,7.33
2019-03-01T13:54:47.927Z,5.90
2019-03-01T13:57:38.181Z,6.83
2019-03-01T14:00:32.981Z,4.80
2019-03-01T14:03:08.566Z,4.42
2019-03-01T14:05:54.546Z,4.53
2019-03-01T14:08:37.485Z,5.03
2019-03-01T14:11:15.176Z,4.95
2019-03-01T14:13:59.657Z,5.58
2019-03-01T14:16:35.439Z,8.18
2019-03-01T14:19:18.034Z,8.38
2019-03-01T14:22:01.496Z,10.93
2019-03-01T14:24:51.304Z,10.15
2019-03-01T14:27:33.936Z,13.78
2019-03-01T14:30:16.452Z,8.20
2019-03-01T14:32:46.261Z,23.05
2019-03-01T14:35:25.832Z,14.95
2019-03-01T14:38:00.633Z,12.90
2019-03-01T14:40:43.101Z,5.25
2019-03-01T14:43:26.123Z,11.60
2019-03-01T14:46:09.990Z,8.50
2019-03-01T14:48:52.431Z,14.47
2019-03-01T14:51:28.348Z,16.75
2019-03-01T14:54:18.109Z,6.62
2019-03-01T14:57:09.909Z,7.85
2019-03-01T14:59:59.569Z,11.95
2019-03-01T15:02:52.525Z,8.63
2019-03-01T15:05:29.101Z,7.10
2019-03-01T15:08:12.623Z,17.73
2019-03-01T15:10:48.512Z,10.90
2019-03-01T15:13:34.747Z,6.17
2019-03-01T15:16:22.318Z,5.58
2019-03-01T15:19:08.171Z,9.55
2019-03-01T15:21:42.258Z,7.90
2019-03-01T15:24:24.263Z,14.90
2019-03-01T15:27:04.257Z,6.92
2019-03-01T15:29:44.804Z,7.08
2019-03-01T15:32:20.769Z,6.62
2019-03-01T15:35:04.545Z,12.25
2019-03-01T15:37:48.750Z,18.55
2019-03-01T15:40:27.817Z,6.75
2019-03-01T15:43:17.326Z,9.38
2019-03-01T15:46:00.797Z,7.25
2019-03-01T15:48:43.393Z,11.38
2019-03-01T15:51:19.212Z,8.10
2019-03-01T15:54:02.003Z,6.62
2019-03-01T15:56:44.677Z,10.17
2019-03-01T15:59:27.675Z,9.75
2019-03-01T16:02:05.132Z,5.58
2019-03-01T16:04:55.293Z,11.20
2019-03-01T16:07:44.850Z,16.95
2019-03-01T16:10:36.185Z,16.57
2019-03-01T16:13:18.450Z,10.32
2019-03-01T16:15:54.455Z,14.87
2019-03-01T16:18:38.998Z,9.60
2019-03-01T16:21:21.748Z,7.42
2019-03-01T16:24:11.472Z,7.92
2019-03-01T16:27:00.732Z,10.60
2019-03-01T16:29:38.772Z,9.58
2019-03-01T16:32:21.954Z,12.73
2019-03-01T16:35:05.154Z,10.82
2019-03-01T16:37:41.557Z,9.73
2019-03-01T16:40:18.014Z,8.30
2019-03-01T16:42:54.676Z,8.73
2019-03-01T16:45:30.486Z,7.30
2019-03-01T16:48:13.589Z,8.90
2019-03-01T16:51:03.597Z,11.60
2019-03-01T16:53:46.321Z,13.85
2019-03-01T16:56:28.691Z,12.70
2019-03-01T16:59:11.537Z,16.07
2019-03-01T17:01:48.113Z,15.70
2019-03-01T17:04:37.798Z,9.10
2019-03-01T17:07:13.283Z,11.90
2019-03-01T17:09:55.831Z,12.82
2019-03-01T17:12:31.559Z,11.25
2019-03-01T17:15:14.667Z,16.45
2019-03-01T17:17:51.791Z,17.45
2019-03-01T17:20:37.452Z,10.38
2019-03-01T17:23:11.485Z,7.40
2019-03-01T17:26:00.192Z,11.83
2019-03-01T17:28:43.486Z,14.55
2019-03-01T17:31:19.551Z,16.77
2019-03-01T17:34:04.439Z,10.93
2019-03-01T17:36:40.494Z,7.17
2019-03-01T17:39:25.189Z,7.55
2019-03-01T17:42:01.785Z,9.60
2019-03-01T17:44:37.597Z,13.08
2019-03-01T17:47:19.855Z,10.75
2019-03-01T17:50:02.010Z,13.93
2019-03-01T17:52:38.701Z,16.20
2019-03-01T17:55:24.793Z,12.20
2019-03-01T17:58:14.963Z,12.58
2019-03-01T18:00:50.939Z,11.05
2019-03-01T18:03:33.231Z,36.08
2019-03-01T18:06:13.028Z,8.93
2019-03-01T18:08:47.908Z,10.05
2019-03-01T18:11:26.127Z,10.75
2019-03-01T18:14:08.572Z,9.05
2019-03-01T18:16:44.514Z,8.20
2019-03-01T18:19:27.701Z,11.57
2019-03-01T18:22:04.213Z,16.02
2019-03-01T18:24:40.649Z,12.07
2019-03-01T18:27:17.998Z,13.53
2019-03-01T18:30:01.636Z,10.38
2019-03-01T18:32:41.731Z,11.33
2019-03-01T18:35:29.015Z,15.25
2019-03-01T18:38:14.510Z,15.25
2019-03-01T18:40:43.974Z,17.90
2019-03-01T18:43:27.020Z,31.85
2019-03-01T18:46:04.385Z,37.25
2019-03-01T18:48:47.783Z,56.48
2019-03-01T18:51:24.553Z,74.20
2019-03-01T18:54:13.924Z,84.13
2019-03-01T18:57:04.489Z,84.75
2019-03-01T18:59:56.416Z,34.85
2019-03-01T19:02:44.944Z,56.35
2019-03-01T19:05:27.847Z,25.57
2019-03-01T19:08:11.431Z,11.83
2019-03-01T19:11:02.907Z,17.73
2019-03-01T19:13:55.108Z,20.15
2019-03-01T19:16:44.903Z,18.70
2019-03-01T19:19:24.438Z,17.10
2019-03-01T19:22:05.492Z,30.57
2019-03-01T19:24:43.275Z,58.65
2019-03-01T19:27:26.862Z,110.55
2019-03-01T19:30:15.774Z,52.27
2019-03-01T19:32:58.970Z,36.80
2019-03-01T19:38:11.644Z,34.35
2019-03-01T19:40:54.225Z,48.70
2019-03-01T19:43:30.299Z,33.38
2019-03-01T19:46:12.672Z,44.05
2019-03-01T19:48:57.722Z,38.92
2019-03-01T19:54:17.725Z,44.13
2019-03-01T19:56:53.474Z,28.80
2019-03-01T19:59:35.969Z,45.52
2019-03-01T20:02:05.876Z,30.57
2019-03-01T20:04:48.192Z,25.05
2019-03-01T20:07:31.671Z,29.37
2019-03-01T20:10:07.819Z,48.98
2019-03-01T20:12:50.634Z,35.30
2019-03-01T20:15:33.068Z,36.87
2019-03-01T20:18:15.737Z,18.48
2019-03-01T20:20:58.279Z,24.82
2019-03-01T20:23:34.283Z,22.05
2019-03-01T20:26:16.849Z,14.78
2019-03-01T20:29:06.172Z,14.80
2019-03-01T20:31:42.249Z,24.82
2019-03-01T20:34:25.124Z,15.15
2019-03-01T20:37:15.547Z,16.00
2019-03-01T20:39:57.639Z,15.83
2019-03-01T20:42:33.681Z,12.93
2019-03-01T20:45:25.962Z,15.15
2019-03-01T20:48:08.258Z,12.53
2019-03-01T20:50:58.126Z,13.20
2019-03-01T20:53:49.483Z,13.38
2019-03-01T20:56:31.913Z,7.53
2019-03-01T20:59:07.707Z,7.47
2019-03-01T21:01:49.474Z,5.25
2019-03-01T21:04:32.648Z,5.22
2019-03-01T21:07:08.686Z,5.25
2019-03-01T21:09:53.554Z,9.10
2019-03-01T21:12:29.237Z,10.63
2019-03-01T21:15:14.069Z,7.50
2019-03-01T21:17:58.517Z,6.03
2019-03-01T21:20:50.482Z,6.40
2019-03-01T21:23:25.616Z,15.23
2019-03-01T21:26:12.126Z,18.80
2019-03-01T21:28:53.956Z,40.33
2019-03-01T21:31:37.138Z,36.48
2019-03-01T21:34:19.866Z,18.87
2019-03-01T21:37:03.992Z,23.42
2019-03-01T21:39:46.822Z,18.15
2019-03-01T21:42:29.734Z,17.90
2019-03-01T21:45:05.818Z,6.78
2019-03-01T21:47:44.650Z,7.25
2019-03-01T21:50:26.299Z,7.20
2019-03-01T21:53:08.451Z,7.27
2019-03-01T21:55:50.992Z,11.60
2019-03-01T21:58:42.013Z,25.97
2019-03-01T22:01:31.860Z,8.63
2019-03-01T22:04:07.453Z,9.20
2019-03-01T22:06:50.474Z,9.65
2019-03-01T22:09:33.230Z,9.40
2019-03-01T22:12:09.413Z,12.17
2019-03-01T22:14:52.005Z,9.80
2019-03-01T22:17:28.346Z,9.88
2019-03-01T22:20:13.793Z,10.68
2019-03-01T22:23:03.145Z,13.08
2019-03-01T22:25:45.208Z,16.70
2019-03-01T22:28:21.607Z,15.13
2019-03-01T22:31:03.445Z,12.47
2019-03-01T22:33:39.592Z,11.50
2019-03-01T22:36:22.216Z,12.93
2019-03-01T22:39:04.488Z,12.70
2019-03-01T22:41:53.389Z,10.25
2019-03-01T22:44:43.782Z,8.38
2019-03-01T22:47:26.915Z,7.37
2019-03-01T22:50:04.041Z,6.22
2019-03-01T22:52:46.816Z,8.73
2019-03-01T22:55:26.935Z,7.70
2019-03-01T22:58:03.398Z,8.63
2019-03-01T23:00:57.548Z,7.45
2019-03-01T23:03:38.557Z,8.48
2019-03-01T23:06:21.070Z,7.45
2019-03-01T23:08:56.808Z,6.85
2019-03-01T23:11:39.583Z,7.03
2019-03-01T23:14:15.135Z,9.30
2019-03-01T23:16:57.064Z,7.25
2019-03-01T23:19:33.172Z,8.70
2019-03-01T23:22:11.039Z,6.92
2019-03-01T23:25:00.779Z,6.33
2019-03-01T23:27:42.870Z,6.22
2019-03-01T23:30:20.168Z,6.33
2019-03-01T23:33:09.014Z,6.92
2019-03-01T23:35:44.716Z,6.53
2019-03-01T23:38:27.253Z,5.30
2019-03-01T23:41:16.551Z,5.75
2019-03-01T23:44:02.805Z,5.65
2019-03-01T23:46:43.711Z,5.75
2019-03-01T23:49:26.067Z,4.90
2019-03-01T23:52:15.191Z,5.67
2019-03-01T23:54:51.777Z,5.47
2019-03-01T23:57:37.904Z,5.10
